Time;durP1;ratioP1;P1;durP2;ratioP2;P2;SDS_P1;SDS_P2;PMS_P1;PMS_P2;Temp;Humidity;BMP_temperature;BMP_pressure;BME280_temperature;BME280_humidity;BME280_pressure;Samples;Min_cycle;Max_cycle;Signal;HPM_P1;HPM_P2
2021/12/11 16:11:40;;;;;;;33.58;12.93;;;6.30;99.90;;;;;;5082742;28;20330;-62
2021/12/11 16:14:06;;;;;;;22.30;9.80;;;6.20;99.90;;;;;;5063475;28;20500;-60
2021/12/11 16:16:32;;;;;;;27.02;10.13;;;6.20;99.90;;;;;;5061215;28;20040;-60
2021/12/11 16:18:58;;;;;;;24.42;10.90;;;6.20;99.90;;;;;;5061084;28;20025;-60
2021/12/11 16:21:26;;;;;;;29.17;10.82;;;6.20;99.90;;;;;;5054256;28;20033;-61
2021/12/11 16:24:00;;;;;;;31.70;11.38;;;6.20;99.90;;;;;;5055675;28;20443;-61
2021/12/11 16:26:28;;;;;;;20.85;11.02;;;6.20;99.90;;;;;;5053464;28;20391;-59
2021/12/11 16:28:54;;;;;;;30.45;11.57;;;6.20;99.90;;;;;;5056035;28;20517;-59
2021/12/11 16:31:21;;;;;;;38.38;11.63;;;6.10;99.90;;;;;;5052938;28;20044;-58
2021/12/11 16:33:47;;;;;;;35.45;11.10;;;6.20;99.90;;;;;;5054334;28;20171;-57
2021/12/11 16:36:13;;;;;;;32.65;11.18;;;6.20;99.90;;;;;;5049885;28;20780;-58
2021/12/11 16:38:43;;;;;;;28.92;10.57;;;6.20;99.90;;;;;;5054483;28;20028;-60
2021/12/11 16:41:20;;;;;;;32.42;11.60;;;6.30;99.90;;;;;;5054054;28;20414;-60
2021/12/11 16:43:59;;;;;;;38.00;13.15;;;6.30;99.90;;;;;;5055364;28;20041;-57
2021/12/11 16:46:48;;;;;;;39.25;12.98;;;6.30;99.90;;;;;;5055455;28;20063;-58
2021/12/11 16:49:17;;;;;;;31.77;11.43;;;6.30;99.90;;;;;;5056182;28;20025;-62
2021/12/11 16:51:48;;;;;;;39.15;12.45;;;6.30;99.90;;;;;;5056470;28;20028;-60
2021/12/11 16:54:14;;;;;;;34.20;13.38;;;6.40;99.90;;;;;;5054067;28;20025;-59
2021/12/11 16:56:41;;;;;;;38.00;12.32;;;6.40;99.90;;;;;;5053030;28;20049;-59
2021/12/11 16:59:11;;;;;;;42.53;14.70;;;6.30;99.90;;;;;;5055263;28;20494;-61
2021/12/11 17:01:41;;;;;;;32.90;13.32;;;6.30;99.90;;;;;;5055181;28;20031;-60
2021/12/11 17:04:07;;;;;;;41.40;13.40;;;6.40;99.90;;;;;;5054878;28;20033;-57
2021/12/11 17:06:43;;;;;;;34.15;12.80;;;6.30;99.90;;;;;;5051556;28;20040;-59
2021/12/11 17:09:12;;;;;;;35.03;12.55;;;6.30;99.90;;;;;;5052846;28;20037;-61
2021/12/11 17:11:38;;;;;;;32.55;12.95;;;6.40;99.90;;;;;;5054254;28;20521;-61
2021/12/11 17:14:05;;;;;;;41.08;12.98;;;6.30;99.90;;;;;;5052609;28;20037;-60
2021/12/11 17:16:32;;;;;;;31.65;13.93;;;6.30;99.90;;;;;;5056317;28;20086;-60
2021/12/11 17:18:58;;;;;;;39.08;13.23;;;6.30;99.90;;;;;;5055096;28;20044;-58
2021/12/11 17:21:24;;;;;;;30.00;13.20;;;6.30;99.90;;;;;;5049607;28;20033;-59
2021/12/11 17:23:51;;;;;;;33.08;13.50;;;6.30;99.90;;;;;;5042333;28;20129;-60
2021/12/11 17:26:18;;;;;;;31.13;11.90;;;6.40;99.90;;;;;;5041964;28;20785;-62
2021/12/11 17:28:50;;;;;;;28.70;11.35;;;6.40;99.90;;;;;;5043132;28;20039;-59
2021/12/11 17:31:17;;;;;;;36.67;12.13;;;6.40;99.90;;;;;;5042331;28;20037;-62
2021/12/11 17:33:45;;;;;;;28.10;10.98;;;6.40;99.90;;;;;;5042965;28;20433;-57
2021/12/11 17:36:12;;;;;;;37.08;13.40;;;6.40;99.90;;;;;;5042780;28;20041;-59
2021/12/11 17:38:38;;;;;;;27.48;10.55;;;6.40;99.90;;;;;;5039915;28;20059;-57
2021/12/11 17:41:06;;;;;;;35.10;10.82;;;6.40;99.90;;;;;;5042493;28;20029;-60
2021/12/11 17:43:33;;;;;;;34.13;10.88;;;6.40;99.90;;;;;;5042701;28;20024;-59
2021/12/11 17:45:59;;;;;;;26.65;11.13;;;6.40;99.90;;;;;;5041051;28;20036;-57
2021/12/11 17:48:24;;;;;;;28.67;10.82;;;6.30;99.90;;;;;;5040391;28;20197;-60
2021/12/11 17:50:56;;;;;;;30.13;10.88;;;6.30;99.90;;;;;;5041114;28;20029;-60
2021/12/11 17:53:22;;;;;;;23.40;11.38;;;6.30;99.90;;;;;;5042053;28;20159;-55
2021/12/11 17:55:50;;;;;;;27.30;11.38;;;6.30;99.90;;;;;;5041802;28;20047;-59
2021/12/11 17:58:23;;;;;;;23.77;11.18;;;6.40;99.90;;;;;;5038371;28;20745;-60
2021/12/11 18:01:09;;;;;;;34.47;10.82;;;6.40;99.90;;;;;;5040573;28;20040;-60
2021/12/11 18:03:36;;;;;;;31.42;10.25;;;6.40;99.90;;;;;;5041947;28;20470;-58
2021/12/11 18:06:07;;;;;;;22.40;10.90;;;6.40;99.90;;;;;;5035521;28;20025;-58
2021/12/11 18:08:35;;;;;;;25.13;9.43;;;6.40;99.90;;;;;;5038490;28;20486;-56
2021/12/11 18:11:11;;;;;;;29.70;10.40;;;6.40;99.90;;;;;;5037474;28;20102;-59
2021/12/11 18:13:48;;;;;;;34.60;11.27;;;6.40;99.90;;;;;;5037552;28;20501;-57
2021/12/11 18:16:33;;;;;;;32.95;10.10;;;6.40;99.90;;;;;;5035709;28;20140;-59
2021/12/11 18:19:07;;;;;;;24.77;8.85;;;6.40;99.90;;;;;;5036753;28;20032;-59
2021/12/11 18:21:37;;;;;;;27.88;9.73;;;6.40;99.90;;;;;;5038780;28;21357;-61
2021/12/11 18:24:04;;;;;;;35.60;9.88;;;6.40;99.90;;;;;;5038789;28;20060;-56
2021/12/11 18:26:34;;;;;;;25.63;8.45;;;6.40;99.90;;;;;;5039275;28;20033;-60
2021/12/11 18:29:06;;;;;;;20.45;9.13;;;6.30;99.90;;;;;;5038606;28;20040;-58
2021/12/11 18:31:32;;;;;;;26.63;10.73;;;6.30;99.90;;;;;;5040083;28;20068;-59
2021/12/11 18:33:58;;;;;;;22.50;8.70;;;6.30;99.90;;;;;;5038419;28;20082;-60
2021/12/11 18:36:29;;;;;;;23.27;8.82;;;6.20;99.90;;;;;;5039617;28;20029;-57
2021/12/11 18:38:55;;;;;;;22.15;8.13;;;6.20;99.90;;;;;;5041748;28;20120;-58
2021/12/11 18:41:25;;;;;;;23.05;9.23;;;6.10;99.90;;;;;;5042125;28;20082;-59
2021/12/11 18:43:53;;;;;;;27.17;8.77;;;6.10;99.90;;;;;;5037745;28;20382;-60
2021/12/11 18:46:22;;;;;;;24.50;8.38;;;6.00;99.90;;;;;;5037720;28;20078;-59
2021/12/11 18:48:48;;;;;;;22.98;9.75;;;5.90;99.90;;;;;;5039859;28;20029;-58
2021/12/11 18:51:22;;;;;;;27.17;8.20;;;5.90;99.90;;;;;;5039131;28;20781;-56
2021/12/11 18:53:52;;;;;;;25.00;9.70;;;5.80;99.90;;;;;;5040191;28;20399;-59
2021/12/11 18:56:19;;;;;;;34.20;9.50;;;5.70;99.90;;;;;;5039860;28;20032;-58
2021/12/11 18:58:48;;;;;;;27.98;10.05;;;5.70;99.90;;;;;;5040106;28;20435;-57
2021/12/11 19:01:37;;;;;;;25.05;9.27;;;5.60;99.90;;;;;;5042308;28;20123;-55
2021/12/11 19:04:14;;;;;;;32.17;10.05;;;5.60;99.90;;;;;;5040612;28;20386;-57
2021/12/11 19:06:44;;;;;;;23.15;9.52;;;5.50;99.90;;;;;;5040297;28;20027;-56
2021/12/11 19:09:12;;;;;;;28.02;9.50;;;5.50;99.90;;;;;;5039138;28;20020;-61
2021/12/11 19:12:00;;;;;;;30.65;9.52;;;5.40;99.90;;;;;;5037980;28;20428;-61
2021/12/11 19:14:29;;;;;;;34.60;11.48;;;5.40;99.90;;;;;;5036500;28;20120;-56
2021/12/11 19:16:55;;;;;;;27.92;9.70;;;5.30;99.90;;;;;;5037638;28;20098;-57
2021/12/11 19:19:21;;;;;;;22.42;8.80;;;5.30;99.90;;;;;;5039534;28;20764;-59
2021/12/11 19:21:55;;;;;;;34.45;11.80;;;5.30;99.90;;;;;;5040189;28;20017;-60
2021/12/11 19:24:23;;;;;;;26.37;8.53;;;5.30;99.90;;;;;;5040248;28;20571;-58
2021/12/11 19:26:55;;;;;;;24.38;8.00;;;5.30;99.90;;;;;;5039799;28;20350;-58
2021/12/11 19:29:22;;;;;;;26.30;8.18;;;5.30;99.90;;;;;;5039451;28;20128;-60
2021/12/11 19:31:50;;;;;;;21.77;7.38;;;5.30;99.90;;;;;;5040580;28;20025;-56
2021/12/11 19:34:18;;;;;;;22.83;8.10;;;5.30;99.90;;;;;;5041310;28;20044;-57
2021/12/11 19:36:47;;;;;;;24.65;9.30;;;5.20;99.90;;;;;;5039978;28;20039;-61
2021/12/11 19:39:24;;;;;;;13.82;6.40;;;5.10;99.90;;;;;;5039511;28;20727;-61
2021/12/11 19:41:50;;;;;;;18.85;7.03;;;5.00;99.90;;;;;;5039710;28;20037;-59
2021/12/11 19:44:16;;;;;;;29.83;7.80;;;4.90;99.90;;;;;;5041857;28;20386;-60
2021/12/11 19:46:42;;;;;;;22.10;7.68;;;4.80;99.90;;;;;;5038753;28;20033;-54
2021/12/11 19:49:10;;;;;;;16.20;6.90;;;4.70;99.90;;;;;;5037509;28;20029;-57
2021/12/11 19:51:40;;;;;;;26.55;8.45;;;4.70;99.90;;;;;;5040451;28;20128;-57
2021/12/11 19:54:13;;;;;;;24.85;8.15;;;4.70;99.90;;;;;;5040900;28;20036;-56
2021/12/11 19:56:42;;;;;;;17.65;7.72;;;4.80;99.90;;;;;;5033735;28;20093;-58
2021/12/11 19:59:13;;;;;;;25.08;8.60;;;4.80;99.90;;;;;;5036784;28;20056;-57
2021/12/11 20:01:42;;;;;;;31.38;8.05;;;4.80;99.90;;;;;;5040607;28;20037;-58
2021/12/11 20:04:10;;;;;;;20.60;7.97;;;4.80;99.90;;;;;;5038371;28;20029;-59
2021/12/11 20:06:40;;;;;;;22.13;7.80;;;4.80;99.90;;;;;;5038819;28;20604;-56
2021/12/11 20:09:21;;;;;;;27.65;9.73;;;4.80;99.90;;;;;;5039906;28;20033;-57
2021/12/11 20:11:58;;;;;;;20.77;7.63;;;4.80;99.90;;;;;;5039970;28;20522;-59
2021/12/11 20:14:25;;;;;;;19.55;7.20;;;4.70;99.90;;;;;;5039784;28;20044;-56
2021/12/11 20:16:54;;;;;;;23.23;8.02;;;4.60;99.90;;;;;;5041030;28;20501;-59
2021/12/11 20:19:26;;;;;;;24.55;8.00;;;4.60;99.90;;;;;;5038510;28;20033;-60
2021/12/11 20:22:06;;;;;;;18.92;6.90;;;4.50;99.90;;;;;;5039876;28;21525;-59
2021/12/11 20:24:35;;;;;;;18.35;7.53;;;4.50;99.90;;;;;;5037468;28;20130;-60
2021/12/11 20:27:01;;;;;;;20.33;7.07;;;4.50;99.90;;;;;;5038942;28;20095;-57
2021/12/11 20:29:34;;;;;;;22.40;6.25;;;4.50;99.90;;;;;;5037529;28;20037;-60
2021/12/11 20:32:01;;;;;;;16.90;6.80;;;4.40;99.90;;;;;;5039792;28;21471;-59
2021/12/11 20:34:30;;;;;;;19.23;6.50;;;4.40;99.90;;;;;;5038484;28;20036;-57
2021/12/11 20:36:58;;;;;;;14.75;5.88;;;4.40;99.90;;;;;;5039109;28;20376;-58
2021/12/11 20:39:25;;;;;;;21.08;6.57;;;4.40;99.90;;;;;;5038838;28;20021;-57
2021/12/11 20:41:55;;;;;;;16.98;6.60;;;4.30;99.90;;;;;;5039528;28;20040;-59
2021/12/11 20:44:25;;;;;;;17.23;5.30;;;4.30;99.90;;;;;;5037427;28;20075;-61
2021/12/11 20:46:52;;;;;;;19.38;5.68;;;4.20;99.90;;;;;;5035471;28;20033;-58
2021/12/11 20:49:19;;;;;;;17.95;5.78;;;4.20;99.90;;;;;;5034435;28;20039;-57
2021/12/11 20:51:49;;;;;;;16.13;6.15;;;4.10;99.90;;;;;;5036281;28;20056;-59
2021/12/11 20:54:19;;;;;;;18.48;6.05;;;4.10;99.90;;;;;;5037527;28;20036;-61
2021/12/11 20:56:45;;;;;;;21.52;6.90;;;4.00;99.90;;;;;;5037804;28;20035;-60
2021/12/11 20:59:14;;;;;;;15.82;5.80;;;4.00;99.90;;;;;;5039657;28;20028;-57
2021/12/11 21:01:47;;;;;;;15.23;6.07;;;3.90;99.90;;;;;;5038511;28;20037;-62
2021/12/11 21:04:21;;;;;;;16.40;5.93;;;3.80;99.90;;;;;;5041915;28;20495;-56
2021/12/11 21:06:54;;;;;;;21.00;5.32;;;3.70;99.90;;;;;;5025509;28;20115;-62
2021/12/11 21:09:26;;;;;;;11.70;5.28;;;3.60;99.90;;;;;;5042136;28;20048;-60
2021/12/11 21:12:04;;;;;;;19.45;6.07;;;3.60;99.90;;;;;;5042510;28;20033;-59
2021/12/11 21:14:30;;;;;;;19.23;7.47;;;3.50;99.90;;;;;;5040218;28;20502;-58
2021/12/11 21:17:00;;;;;;;16.77;5.68;;;3.40;99.90;;;;;;5041886;28;20028;-59
2021/12/11 21:19:35;;;;;;;22.70;6.75;;;3.40;99.90;;;;;;5041801;28;20033;-58
2021/12/11 21:22:09;;;;;;;18.23;6.65;;;3.30;99.90;;;;;;5040966;28;20057;-61
2021/12/11 21:24:40;;;;;;;25.67;8.02;;;3.30;99.90;;;;;;5038480;28;20170;-62
2021/12/11 21:27:20;;;;;;;19.23;7.20;;;3.30;99.90;;;;;;5043025;28;20064;-61
2021/12/11 21:29:47;;;;;;;19.77;7.72;;;3.20;99.90;;;;;;5040862;28;20714;-58
2021/12/11 21:32:19;;;;;;;19.80;7.55;;;3.20;99.90;;;;;;5041269;28;20098;-57
2021/12/11 21:34:48;;;;;;;28.55;8.48;;;3.20;99.90;;;;;;5039841;28;20086;-62
2021/12/11 21:37:16;;;;;;;19.50;8.05;;;3.10;99.90;;;;;;5042392;28;20036;-56
2021/12/11 21:40:23;;;;;;;20.17;8.55;;;3.10;99.90;;;;;;5038175;28;20057;-59
2021/12/11 21:42:54;;;;;;;21.95;7.18;;;3.10;99.90;;;;;;5042369;28;20120;-59
2021/12/11 21:45:26;;;;;;;22.50;8.55;;;3.00;99.90;;;;;;5039658;28;20059;-60
2021/12/11 21:48:00;;;;;;;20.83;7.50;;;3.00;99.90;;;;;;5038139;28;20582;-58
2021/12/11 21:50:33;;;;;;;;;;;3.00;99.90;;;;;;5039310;28;20049;-60
2021/12/11 21:52:59;;;;;;;26.20;8.75;;;3.00;99.90;;;;;;5037677;28;19917;-62
2021/12/11 21:55:29;;;;;;;21.92;8.65;;;3.10;99.90;;;;;;5037340;28;20048;-61
2021/12/11 21:57:57;;;;;;;19.40;7.93;;;3.20;99.90;;;;;;5040154;28;20037;-58
2021/12/11 22:00:37;;;;;;;20.42;7.13;;;3.20;99.90;;;;;;5041462;28;20036;-58
2021/12/11 22:03:20;;;;;;;24.27;7.60;;;3.30;99.90;;;;;;5041699;28;20025;-58
2021/12/11 22:05:51;;;;;;;14.00;7.03;;;3.30;99.90;;;;;;5039970;28;20415;-59
2021/12/11 22:08:17;;;;;;;18.25;7.57;;;3.20;99.90;;;;;;5040628;28;20029;-61
2021/12/11 22:10:47;;;;;;;20.20;7.72;;;3.30;99.90;;;;;;5039918;28;20043;-58
2021/12/11 22:13:15;;;;;;;22.25;8.15;;;3.30;99.90;;;;;;5042006;28;20787;-53
2021/12/11 22:15:46;;;;;;;16.02;7.63;;;3.30;99.90;;;;;;5041009;28;20048;-59
2021/12/11 22:18:12;;;;;;;20.92;7.95;;;3.30;99.90;;;;;;5038189;28;20040;-59
2021/12/11 22:20:43;;;;;;;17.85;7.07;;;3.30;99.90;;;;;;5040617;28;20063;-55
2021/12/11 22:23:09;;;;;;;22.13;8.38;;;3.30;99.90;;;;;;5041496;28;20064;-57
2021/12/11 22:25:38;;;;;;;19.15;9.07;;;3.30;99.90;;;;;;5041594;28;20128;-60
2021/12/11 22:28:05;;;;;;;21.85;8.93;;;3.30;99.90;;;;;;5041332;28;20383;-56
2021/12/11 22:30:40;;;;;;;21.45;8.10;;;3.30;99.90;;;;;;5042077;28;20028;-58
2021/12/11 22:33:08;;;;;;;22.95;8.07;;;3.20;99.90;;;;;;5041535;28;20041;-57
2021/12/11 22:35:37;;;;;;;18.60;8.88;;;3.20;99.90;;;;;;5041433;28;20037;-56
2021/12/11 22:38:05;;;;;;;17.55;8.02;;;3.20;99.90;;;;;;5042736;28;20594;-53
2021/12/11 22:40:43;;;;;;;14.20;7.55;;;3.20;99.90;;;;;;5042696;28;20672;-60
2021/12/11 22:43:12;;;;;;;22.95;8.75;;;3.10;99.90;;;;;;5042576;28;20041;-55
2021/12/11 22:45:42;;;;;;;21.85;8.55;;;3.10;99.90;;;;;;5040529;28;20086;-54
2021/12/11 22:48:09;;;;;;;16.60;8.63;;;3.10;99.90;;;;;;5038216;28;20637;-60
2021/12/11 22:50:42;;;;;;;16.83;7.45;;;3.00;99.90;;;;;;5041726;28;20040;-58
2021/12/11 22:53:15;;;;;;;17.13;8.15;;;3.00;99.90;;;;;;5041469;28;20579;-60
2021/12/11 22:55:43;;;;;;;19.15;7.70;;;3.00;99.90;;;;;;5041857;28;20029;-54
2021/12/11 22:58:18;;;;;;;18.90;8.90;;;3.00;99.90;;;;;;5038865;28;20029;-60
2021/12/11 23:01:10;;;;;;;23.30;8.77;;;3.00;99.90;;;;;;5042429;28;20029;-58
2021/12/11 23:03:57;;;;;;;22.30;8.40;;;3.00;99.90;;;;;;5038449;28;20036;-59
2021/12/11 23:06:25;;;;;;;23.40;8.05;;;3.00;99.90;;;;;;5042279;28;20634;-56
2021/12/11 23:08:52;;;;;;;17.70;8.07;;;3.00;99.90;;;;;;5022239;28;20032;-54
2021/12/11 23:11:34;;;;;;;21.45;8.75;;;3.00;99.90;;;;;;5042198;28;20059;-56
2021/12/11 23:14:10;;;;;;;16.73;7.75;;;3.00;99.90;;;;;;5042372;28;20085;-59
2021/12/11 23:16:40;;;;;;;21.52;8.18;;;3.10;99.90;;;;;;5041065;28;20111;-59
2021/12/11 23:19:09;;;;;;;19.40;8.13;;;3.10;99.90;;;;;;5040756;28;20614;-56
2021/12/11 23:21:46;;;;;;;18.17;8.45;;;3.10;99.90;;;;;;5041615;28;20059;-57
2021/12/11 23:24:18;;;;;;;19.48;7.10;;;3.20;99.90;;;;;;5037408;28;20624;-61
2021/12/11 23:26:50;;;;;;;18.00;7.70;;;3.20;99.90;;;;;;5040862;28;20037;-56
2021/12/11 23:29:27;;;;;;;18.33;8.35;;;3.20;99.90;;;;;;5040482;28;20043;-54
2021/12/11 23:32:07;;;;;;;18.25;8.25;;;3.20;99.90;;;;;;5040195;28;20407;-61
2021/12/11 23:34:45;;;;;;;16.92;7.68;;;3.20;99.90;;;;;;5041139;28;20033;-57
2021/12/11 23:37:16;;;;;;;14.68;6.68;;;3.20;99.90;;;;;;5041230;28;20081;-56
2021/12/11 23:40:00;;;;;;;24.35;7.55;;;3.20;99.90;;;;;;5041023;28;20043;-57
2021/12/11 23:42:37;;;;;;;14.60;6.65;;;3.30;99.90;;;;;;5039665;28;20025;-55
2021/12/11 23:45:28;;;;;;;21.05;6.75;;;3.30;99.90;;;;;;5041223;28;20868;-55
2021/12/11 23:47:57;;;;;;;24.27;8.02;;;3.40;99.90;;;;;;5039790;28;20091;-58
2021/12/11 23:50:40;;;;;;;12.70;6.68;;;3.40;99.90;;;;;;5041262;28;20036;-57
2021/12/11 23:53:07;;;;;;;18.35;6.60;;;3.40;99.90;;;;;;5041520;28;20083;-60
2021/12/11 23:55:40;;;;;;;11.45;6.22;;;3.40;99.90;;;;;;5040040;28;20103;-59
2021/12/11 23:58:07;;;;;;;21.13;6.67;;;3.50;99.90;;;;;;5040282;28;20043;-58
